sensor_id;sensor_type;location;lat;lon;timestamp;P1;durP1;ratioP1;P2;durP2;ratioP2
2956;SDS011;1488;51.548;7.222;2022-08-30T00:01:27;1.20;;;1.10;;
2956;SDS011;1488;51.548;7.222;2022-08-30T00:03:54;1.37;;;1.27;;
2956;SDS011;1488;51.548;7.222;2022-08-30T00:06:22;1.60;;;1.50;;
2956;SDS011;1488;51.548;7.222;2022-08-30T00:08:52;1.50;;;1.40;;
2956;SDS011;1488;51.548;7.222;2022-08-30T00:11:19;1.17;;;1.07;;
2956;SDS011;1488;51.548;7.222;2022-08-30T00:13:48;2.90;;;1.73;;
2956;SDS011;1488;51.548;7.222;2022-08-30T00:16:17;1.50;;;1.40;;
2956;SDS011;1488;51.548;7.222;2022-08-30T00:18:45;1.63;;;1.30;;
2956;SDS011;1488;51.548;7.222;2022-08-30T00:21:13;1.60;;;1.50;;
2956;SDS011;1488;51.548;7.222;2022-08-30T00:23:40;1.30;;;1.20;;
2956;SDS011;1488;51.548;7.222;2022-08-30T00:26:09;1.30;;;1.20;;
2956;SDS011;1488;51.548;7.222;2022-08-30T00:28:35;1.30;;;1.20;;
2956;SDS011;1488;51.548;7.222;2022-08-30T00:31:03;1.50;;;1.40;;
2956;SDS011;1488;51.548;7.222;2022-08-30T00:33:31;1.30;;;1.20;;
2956;SDS011;1488;51.548;7.222;2022-08-30T00:35:58;1.50;;;1.40;;
2956;SDS011;1488;51.548;7.222;2022-08-30T00:38:25;1.83;;;1.70;;
2956;SDS011;1488;51.548;7.222;2022-08-30T00:40:52;1.40;;;1.30;;
2956;SDS011;1488;51.548;7.222;2022-08-30T00:43:21;1.40;;;1.30;;
2956;SDS011;1488;51.548;7.222;2022-08-30T00:45:49;1.30;;;1.20;;
2956;SDS011;1488;51.548;7.222;2022-08-30T00:48:16;1.30;;;1.20;;
2956;SDS011;1488;51.548;7.222;2022-08-30T00:50:44;1.40;;;1.30;;
2956;SDS011;1488;51.548;7.222;2022-08-30T00:53:14;1.50;;;1.10;;
2956;SDS011;1488;51.548;7.222;2022-08-30T00:55:45;1.20;;;1.10;;
2956;SDS011;1488;51.548;7.222;2022-08-30T00:58:13;1.40;;;1.30;;
2956;SDS011;1488;51.548;7.222;2022-08-30T01:00:47;1.40;;;1.30;;
2956;SDS011;1488;51.548;7.222;2022-08-30T01:03:16;1.37;;;1.27;;
2956;SDS011;1488;51.548;7.222;2022-08-30T01:05:43;1.27;;;1.17;;
2956;SDS011;1488;51.548;7.222;2022-08-30T01:08:10;1.40;;;1.30;;
2956;SDS011;1488;51.548;7.222;2022-08-30T01:10:39;1.20;;;1.10;;
2956;SDS011;1488;51.548;7.222;2022-08-30T01:13:07;1.37;;;1.27;;
2956;SDS011;1488;51.548;7.222;2022-08-30T01:15:37;1.50;;;1.40;;
2956;SDS011;1488;51.548;7.222;2022-08-30T01:18:06;1.10;;;1.00;;
2956;SDS011;1488;51.548;7.222;2022-08-30T01:20:36;1.40;;;1.30;;
2956;SDS011;1488;51.548;7.222;2022-08-30T01:23:09;1.50;;;1.40;;
2956;SDS011;1488;51.548;7.222;2022-08-30T01:25:38;1.20;;;1.10;;
2956;SDS011;1488;51.548;7.222;2022-08-30T01:28:09;1.43;;;1.33;;
2956;SDS011;1488;51.548;7.222;2022-08-30T01:30:38;1.10;;;1.00;;
2956;SDS011;1488;51.548;7.222;2022-08-30T01:33:07;1.40;;;1.30;;
2956;SDS011;1488;51.548;7.222;2022-08-30T01:35:37;1.40;;;1.30;;
2956;SDS011;1488;51.548;7.222;2022-08-30T01:38:11;1.23;;;1.13;;
2956;SDS011;1488;51.548;7.222;2022-08-30T01:40:39;1.20;;;1.10;;
2956;SDS011;1488;51.548;7.222;2022-08-30T01:43:06;1.20;;;1.10;;
2956;SDS011;1488;51.548;7.222;2022-08-30T01:45:33;1.10;;;1.00;;
2956;SDS011;1488;51.548;7.222;2022-08-30T01:48:00;1.30;;;1.20;;
2956;SDS011;1488;51.548;7.222;2022-08-30T01:50:27;1.30;;;1.20;;
2956;SDS011;1488;51.548;7.222;2022-08-30T01:52:54;1.30;;;1.13;;
2956;SDS011;1488;51.548;7.222;2022-08-30T01:55:23;1.30;;;1.20;;
2956;SDS011;1488;51.548;7.222;2022-08-30T01:57:50;1.30;;;1.20;;
2956;SDS011;1488;51.548;7.222;2022-08-30T02:00:17;1.20;;;1.10;;
2956;SDS011;1488;51.548;7.222;2022-08-30T02:02:44;1.10;;;1.00;;
2956;SDS011;1488;51.548;7.222;2022-08-30T02:05:11;1.40;;;1.30;;
2956;SDS011;1488;51.548;7.222;2022-08-30T02:07:38;1.20;;;1.10;;
2956;SDS011;1488;51.548;7.222;2022-08-30T02:10:05;1.20;;;1.10;;
2956;SDS011;1488;51.548;7.222;2022-08-30T02:12:33;1.10;;;1.00;;
2956;SDS011;1488;51.548;7.222;2022-08-30T02:15:00;1.07;;;0.97;;
2956;SDS011;1488;51.548;7.222;2022-08-30T02:17:27;1.27;;;1.17;;
2956;SDS011;1488;51.548;7.222;2022-08-30T02:19:54;1.13;;;1.03;;
2956;SDS011;1488;51.548;7.222;2022-08-30T02:22:21;1.10;;;1.00;;
2956;SDS011;1488;51.548;7.222;2022-08-30T02:24:48;1.30;;;1.20;;
2956;SDS011;1488;51.548;7.222;2022-08-30T02:27:14;1.30;;;1.20;;
2956;SDS011;1488;51.548;7.222;2022-08-30T02:29:43;1.37;;;1.27;;
2956;SDS011;1488;51.548;7.222;2022-08-30T02:32:10;1.20;;;1.10;;
2956;SDS011;1488;51.548;7.222;2022-08-30T02:34:37;1.30;;;1.20;;
2956;SDS011;1488;51.548;7.222;2022-08-30T02:37:04;1.20;;;1.10;;
2956;SDS011;1488;51.548;7.222;2022-08-30T02:39:31;1.40;;;1.10;;
2956;SDS011;1488;51.548;7.222;2022-08-30T02:41:58;1.30;;;1.17;;
2956;SDS011;1488;51.548;7.222;2022-08-30T02:44:24;1.10;;;1.00;;
2956;SDS011;1488;51.548;7.222;2022-08-30T02:46:53;1.17;;;1.07;;
2956;SDS011;1488;51.548;7.222;2022-08-30T02:49:19;1.07;;;0.97;;
2956;SDS011;1488;51.548;7.222;2022-08-30T02:51:46;1.17;;;1.07;;
2956;SDS011;1488;51.548;7.222;2022-08-30T02:54:14;1.30;;;1.20;;
2956;SDS011;1488;51.548;7.222;2022-08-30T02:56:44;1.10;;;1.00;;
2956;SDS011;1488;51.548;7.222;2022-08-30T02:59:10;1.20;;;1.10;;
2956;SDS011;1488;51.548;7.222;2022-08-30T03:01:37;0.97;;;0.87;;
2956;SDS011;1488;51.548;7.222;2022-08-30T03:04:06;1.20;;;1.10;;
2956;SDS011;1488;51.548;7.222;2022-08-30T03:06:33;1.20;;;1.10;;
2956;SDS011;1488;51.548;7.222;2022-08-30T03:09:00;1.20;;;1.10;;
2956;SDS011;1488;51.548;7.222;2022-08-30T03:11:27;1.20;;;1.10;;
2956;SDS011;1488;51.548;7.222;2022-08-30T03:13:54;1.17;;;1.07;;
2956;SDS011;1488;51.548;7.222;2022-08-30T03:16:21;1.20;;;1.03;;
2956;SDS011;1488;51.548;7.222;2022-08-30T03:18:48;1.20;;;1.10;;
2956;SDS011;1488;51.548;7.222;2022-08-30T03:21:16;1.20;;;1.10;;
2956;SDS011;1488;51.548;7.222;2022-08-30T03:23:43;1.00;;;0.83;;
2956;SDS011;1488;51.548;7.222;2022-08-30T03:26:10;1.07;;;0.97;;
2956;SDS011;1488;51.548;7.222;2022-08-30T03:28:39;1.10;;;1.00;;
2956;SDS011;1488;51.548;7.222;2022-08-30T03:31:07;1.17;;;1.07;;
2956;SDS011;1488;51.548;7.222;2022-08-30T03:33:34;1.10;;;1.00;;
2956;SDS011;1488;51.548;7.222;2022-08-30T03:36:04;1.33;;;1.23;;
2956;SDS011;1488;51.548;7.222;2022-08-30T03:38:32;1.10;;;1.00;;
2956;SDS011;1488;51.548;7.222;2022-08-30T03:40:59;1.10;;;1.00;;
2956;SDS011;1488;51.548;7.222;2022-08-30T03:43:26;1.10;;;1.00;;
2956;SDS011;1488;51.548;7.222;2022-08-30T03:45:53;1.23;;;1.13;;
2956;SDS011;1488;51.548;7.222;2022-08-30T03:48:20;1.10;;;1.00;;
2956;SDS011;1488;51.548;7.222;2022-08-30T03:50:47;1.10;;;1.00;;
2956;SDS011;1488;51.548;7.222;2022-08-30T03:53:14;1.10;;;1.00;;
2956;SDS011;1488;51.548;7.222;2022-08-30T03:55:42;1.20;;;1.10;;
2956;SDS011;1488;51.548;7.222;2022-08-30T03:58:09;1.00;;;0.90;;
2956;SDS011;1488;51.548;7.222;2022-08-30T04:00:36;1.27;;;1.17;;
2956;SDS011;1488;51.548;7.222;2022-08-30T04:03:03;1.00;;;0.90;;
2956;SDS011;1488;51.548;7.222;2022-08-30T04:05:30;1.57;;;1.10;;
2956;SDS011;1488;51.548;7.222;2022-08-30T04:07:57;1.17;;;1.07;;
2956;SDS011;1488;51.548;7.222;2022-08-30T04:10:24;1.00;;;0.90;;
2956;SDS011;1488;51.548;7.222;2022-08-30T04:12:52;1.30;;;1.20;;
2956;SDS011;1488;51.548;7.222;2022-08-30T04:15:19;1.30;;;1.20;;
2956;SDS011;1488;51.548;7.222;2022-08-30T04:17:46;1.00;;;0.90;;
2956;SDS011;1488;51.548;7.222;2022-08-30T04:20:13;0.93;;;0.90;;
2956;SDS011;1488;51.548;7.222;2022-08-30T04:22:40;1.10;;;1.00;;
2956;SDS011;1488;51.548;7.222;2022-08-30T04:25:08;1.20;;;1.10;;
2956;SDS011;1488;51.548;7.222;2022-08-30T04:27:35;1.00;;;0.90;;
2956;SDS011;1488;51.548;7.222;2022-08-30T04:30:04;0.97;;;0.87;;
2956;SDS011;1488;51.548;7.222;2022-08-30T04:32:33;1.00;;;0.90;;
2956;SDS011;1488;51.548;7.222;2022-08-30T04:35:00;1.20;;;1.10;;
2956;SDS011;1488;51.548;7.222;2022-08-30T04:37:27;1.47;;;1.30;;
2956;SDS011;1488;51.548;7.222;2022-08-30T04:39:54;1.00;;;0.90;;
2956;SDS011;1488;51.548;7.222;2022-08-30T04:42:24;2.17;;;2.00;;
2956;SDS011;1488;51.548;7.222;2022-08-30T04:44:52;2.50;;;2.30;;
2956;SDS011;1488;51.548;7.222;2022-08-30T04:47:21;3.23;;;2.93;;
2956;SDS011;1488;51.548;7.222;2022-08-30T04:49:47;2.70;;;2.50;;
2956;SDS011;1488;51.548;7.222;2022-08-30T04:52:14;2.37;;;2.20;;
2956;SDS011;1488;51.548;7.222;2022-08-30T04:54:41;5.53;;;2.80;;
2956;SDS011;1488;51.548;7.222;2022-08-30T04:57:08;4.23;;;3.27;;
2956;SDS011;1488;51.548;7.222;2022-08-30T04:59:36;2.77;;;2.60;;
2956;SDS011;1488;51.548;7.222;2022-08-30T05:02:04;3.30;;;2.70;;
2956;SDS011;1488;51.548;7.222;2022-08-30T05:04:32;3.63;;;2.93;;
2956;SDS011;1488;51.548;7.222;2022-08-30T05:06:59;3.33;;;3.03;;
2956;SDS011;1488;51.548;7.222;2022-08-30T05:09:26;4.57;;;2.83;;
2956;SDS011;1488;51.548;7.222;2022-08-30T05:11:53;3.20;;;2.90;;
2956;SDS011;1488;51.548;7.222;2022-08-30T05:14:19;2.70;;;2.60;;
2956;SDS011;1488;51.548;7.222;2022-08-30T05:16:46;3.13;;;2.93;;
2956;SDS011;1488;51.548;7.222;2022-08-30T05:19:13;3.57;;;3.10;;
2956;SDS011;1488;51.548;7.222;2022-08-30T05:21:42;2.97;;;2.77;;
2956;SDS011;1488;51.548;7.222;2022-08-30T05:24:09;2.90;;;2.70;;
2956;SDS011;1488;51.548;7.222;2022-08-30T05:26:36;2.53;;;2.30;;
2956;SDS011;1488;51.548;7.222;2022-08-30T05:29:03;2.70;;;2.00;;
2956;SDS011;1488;51.548;7.222;2022-08-30T05:31:31;3.00;;;1.73;;
2956;SDS011;1488;51.548;7.222;2022-08-30T05:34:00;1.40;;;1.20;;
2956;SDS011;1488;51.548;7.222;2022-08-30T05:36:28;1.50;;;1.40;;
2956;SDS011;1488;51.548;7.222;2022-08-30T05:38:57;2.27;;;1.40;;
2956;SDS011;1488;51.548;7.222;2022-08-30T05:41:25;2.47;;;1.60;;
2956;SDS011;1488;51.548;7.222;2022-08-30T05:43:52;1.40;;;1.30;;
2956;SDS011;1488;51.548;7.222;2022-08-30T05:46:22;1.43;;;1.33;;
2956;SDS011;1488;51.548;7.222;2022-08-30T05:48:50;1.50;;;1.40;;
2956;SDS011;1488;51.548;7.222;2022-08-30T05:51:18;1.33;;;1.23;;
2956;SDS011;1488;51.548;7.222;2022-08-30T05:53:46;1.70;;;1.50;;
2956;SDS011;1488;51.548;7.222;2022-08-30T05:56:16;1.37;;;1.10;;
2956;SDS011;1488;51.548;7.222;2022-08-30T05:58:45;1.50;;;1.40;;
2956;SDS011;1488;51.548;7.222;2022-08-30T06:01:19;1.60;;;1.30;;
2956;SDS011;1488;51.548;7.222;2022-08-30T06:03:47;1.20;;;1.10;;
2956;SDS011;1488;51.548;7.222;2022-08-30T06:06:16;2.50;;;1.60;;
2956;SDS011;1488;51.548;7.222;2022-08-30T06:08:43;1.30;;;1.20;;
2956;SDS011;1488;51.548;7.222;2022-08-30T06:11:11;1.77;;;1.33;;
2956;SDS011;1488;51.548;7.222;2022-08-30T06:13:40;1.40;;;1.30;;
2956;SDS011;1488;51.548;7.222;2022-08-30T06:16:09;2.83;;;1.30;;
2956;SDS011;1488;51.548;7.222;2022-08-30T06:18:37;1.60;;;1.50;;
2956;SDS011;1488;51.548;7.222;2022-08-30T06:21:04;1.90;;;1.47;;
2956;SDS011;1488;51.548;7.222;2022-08-30T06:23:31;1.87;;;1.17;;
2956;SDS011;1488;51.548;7.222;2022-08-30T06:26:01;1.20;;;1.10;;
2956;SDS011;1488;51.548;7.222;2022-08-30T06:28:29;1.13;;;1.03;;
2956;SDS011;1488;51.548;7.222;2022-08-30T06:30:58;1.23;;;1.13;;
2956;SDS011;1488;51.548;7.222;2022-08-30T06:33:25;3.10;;;1.43;;
2956;SDS011;1488;51.548;7.222;2022-08-30T06:35:52;3.17;;;1.30;;
2956;SDS011;1488;51.548;7.222;2022-08-30T06:38:19;4.33;;;1.30;;
2956;SDS011;1488;51.548;7.222;2022-08-30T06:40:46;1.53;;;1.30;;
2956;SDS011;1488;51.548;7.222;2022-08-30T06:43:14;1.30;;;1.20;;
2956;SDS011;1488;51.548;7.222;2022-08-30T06:45:41;2.87;;;1.50;;
2956;SDS011;1488;51.548;7.222;2022-08-30T06:48:09;1.10;;;1.00;;
2956;SDS011;1488;51.548;7.222;2022-08-30T06:50:37;1.10;;;1.00;;
2956;SDS011;1488;51.548;7.222;2022-08-30T06:53:06;3.57;;;2.20;;
2956;SDS011;1488;51.548;7.222;2022-08-30T06:55:33;3.20;;;1.90;;
2956;SDS011;1488;51.548;7.222;2022-08-30T06:58:00;1.67;;;1.57;;
2956;SDS011;1488;51.548;7.222;2022-08-30T07:00:27;3.13;;;1.33;;
2956;SDS011;1488;51.548;7.222;2022-08-30T07:02:55;1.30;;;1.13;;
2956;SDS011;1488;51.548;7.222;2022-08-30T07:05:23;1.37;;;1.23;;
2956;SDS011;1488;51.548;7.222;2022-08-30T07:07:50;1.70;;;1.10;;
2956;SDS011;1488;51.548;7.222;2022-08-30T07:10:18;1.43;;;1.20;;
2956;SDS011;1488;51.548;7.222;2022-08-30T07:12:46;1.50;;;1.40;;
2956;SDS011;1488;51.548;7.222;2022-08-30T07:15:13;1.60;;;1.30;;
2956;SDS011;1488;51.548;7.222;2022-08-30T07:17:44;1.17;;;1.07;;
2956;SDS011;1488;51.548;7.222;2022-08-30T07:20:30;1.50;;;1.40;;
2956;SDS011;1488;51.548;7.222;2022-08-30T07:22:56;2.73;;;2.20;;
2956;SDS011;1488;51.548;7.222;2022-08-30T07:25:23;1.90;;;1.80;;
2956;SDS011;1488;51.548;7.222;2022-08-30T07:27:51;3.23;;;2.20;;
2956;SDS011;1488;51.548;7.222;2022-08-30T07:30:18;3.90;;;1.80;;
2956;SDS011;1488;51.548;7.222;2022-08-30T07:32:45;2.20;;;2.03;;
2956;SDS011;1488;51.548;7.222;2022-08-30T07:35:12;3.50;;;1.80;;
2956;SDS011;1488;51.548;7.222;2022-08-30T07:37:40;4.27;;;2.37;;
2956;SDS011;1488;51.548;7.222;2022-08-30T07:40:07;2.73;;;2.53;;
2956;SDS011;1488;51.548;7.222;2022-08-30T07:42:35;2.77;;;2.20;;
2956;SDS011;1488;51.548;7.222;2022-08-30T07:45:03;2.40;;;2.30;;
2956;SDS011;1488;51.548;7.222;2022-08-30T07:47:31;2.47;;;2.27;;
2956;SDS011;1488;51.548;7.222;2022-08-30T07:49:58;2.57;;;1.70;;
2956;SDS011;1488;51.548;7.222;2022-08-30T07:52:25;1.50;;;1.40;;
2956;SDS011;1488;51.548;7.222;2022-08-30T07:54:54;2.03;;;1.57;;
2956;SDS011;1488;51.548;7.222;2022-08-30T07:57:21;1.60;;;1.50;;
2956;SDS011;1488;51.548;7.222;2022-08-30T07:59:49;1.73;;;1.63;;
2956;SDS011;1488;51.548;7.222;2022-08-30T08:02:16;1.70;;;1.60;;
2956;SDS011;1488;51.548;7.222;2022-08-30T08:04:43;2.60;;;1.60;;
2956;SDS011;1488;51.548;7.222;2022-08-30T08:07:11;2.00;;;1.33;;
2956;SDS011;1488;51.548;7.222;2022-08-30T08:09:37;1.63;;;1.47;;
2956;SDS011;1488;51.548;7.222;2022-08-30T08:12:06;1.93;;;1.70;;
2956;SDS011;1488;51.548;7.222;2022-08-30T08:14:33;3.37;;;1.60;;
2956;SDS011;1488;51.548;7.222;2022-08-30T08:17:00;1.30;;;1.20;;
2956;SDS011;1488;51.548;7.222;2022-08-30T08:19:29;1.10;;;1.00;;
2956;SDS011;1488;51.548;7.222;2022-08-30T08:21:56;1.47;;;1.37;;
2956;SDS011;1488;51.548;7.222;2022-08-30T08:24:25;1.40;;;1.30;;
2956;SDS011;1488;51.548;7.222;2022-08-30T08:26:53;1.50;;;1.27;;
2956;SDS011;1488;51.548;7.222;2022-08-30T08:29:22;1.23;;;1.13;;
2956;SDS011;1488;51.548;7.222;2022-08-30T08:31:49;1.10;;;0.90;;
2956;SDS011;1488;51.548;7.222;2022-08-30T08:34:16;1.60;;;1.33;;
2956;SDS011;1488;51.548;7.222;2022-08-30T08:36:47;2.10;;;1.10;;
2956;SDS011;1488;51.548;7.222;2022-08-30T08:39:14;1.87;;;1.10;;
2956;SDS011;1488;51.548;7.222;2022-08-30T08:41:45;1.20;;;1.10;;
2956;SDS011;1488;51.548;7.222;2022-08-30T08:44:24;1.20;;;1.10;;
2956;SDS011;1488;51.548;7.222;2022-08-30T08:47:03;1.50;;;1.10;;
2956;SDS011;1488;51.548;7.222;2022-08-30T08:49:36;1.50;;;1.20;;
2956;SDS011;1488;51.548;7.222;2022-08-30T08:52:06;1.20;;;1.10;;
2956;SDS011;1488;51.548;7.222;2022-08-30T08:54:56;1.33;;;1.03;;
2956;SDS011;1488;51.548;7.222;2022-08-30T08:57:30;1.30;;;1.10;;
2956;SDS011;1488;51.548;7.222;2022-08-30T09:00:02;1.30;;;1.20;;
2956;SDS011;1488;51.548;7.222;2022-08-30T09:02:33;4.90;;;1.90;;
2956;SDS011;1488;51.548;7.222;2022-08-30T09:05:04;1.93;;;1.00;;
2956;SDS011;1488;51.548;7.222;2022-08-30T09:07:33;1.10;;;1.00;;
2956;SDS011;1488;51.548;7.222;2022-08-30T09:10:05;1.53;;;1.20;;
2956;SDS011;1488;51.548;7.222;2022-08-30T09:12:32;1.53;;;1.37;;
2956;SDS011;1488;51.548;7.222;2022-08-30T09:15:03;2.60;;;1.20;;
2956;SDS011;1488;51.548;7.222;2022-08-30T09:17:47;1.50;;;1.40;;
2956;SDS011;1488;51.548;7.222;2022-08-30T09:20:26;1.63;;;1.20;;
2956;SDS011;1488;51.548;7.222;2022-08-30T09:22:55;1.77;;;1.07;;
2956;SDS011;1488;51.548;7.222;2022-08-30T09:25:24;3.37;;;1.40;;
2956;SDS011;1488;51.548;7.222;2022-08-30T09:27:53;1.17;;;1.07;;
2956;SDS011;1488;51.548;7.222;2022-08-30T09:30:34;1.83;;;1.20;;
2956;SDS011;1488;51.548;7.222;2022-08-30T09:33:03;1.50;;;1.30;;
2956;SDS011;1488;51.548;7.222;2022-08-30T09:35:32;1.40;;;1.20;;
2956;SDS011;1488;51.548;7.222;2022-08-30T09:38:02;5.27;;;1.50;;
2956;SDS011;1488;51.548;7.222;2022-08-30T09:40:36;4.40;;;1.47;;
2956;SDS011;1488;51.548;7.222;2022-08-30T09:43:06;1.40;;;1.30;;
2956;SDS011;1488;51.548;7.222;2022-08-30T09:45:37;1.57;;;1.10;;
2956;SDS011;1488;51.548;7.222;2022-08-30T09:48:22;1.50;;;1.30;;
2956;SDS011;1488;51.548;7.222;2022-08-30T09:50:57;1.47;;;1.00;;
2956;SDS011;1488;51.548;7.222;2022-08-30T09:53:38;1.33;;;1.23;;
2956;SDS011;1488;51.548;7.222;2022-08-30T09:56:13;1.20;;;1.10;;
2956;SDS011;1488;51.548;7.222;2022-08-30T09:58:53;2.23;;;1.37;;
2956;SDS011;1488;51.548;7.222;2022-08-30T10:01:29;1.10;;;1.00;;
2956;SDS011;1488;51.548;7.222;2022-08-30T10:04:01;1.30;;;1.00;;
2956;SDS011;1488;51.548;7.222;2022-08-30T10:06:39;1.20;;;1.10;;
2956;SDS011;1488;51.548;7.222;2022-08-30T10:09:11;1.07;;;0.97;;
2956;SDS011;1488;51.548;7.222;2022-08-30T10:11:49;2.80;;;1.10;;
2956;SDS011;1488;51.548;7.222;2022-08-30T10:14:29;1.10;;;1.00;;
2956;SDS011;1488;51.548;7.222;2022-08-30T10:17:10;2.03;;;1.20;;
2956;SDS011;1488;51.548;7.222;2022-08-30T10:19:48;1.30;;;1.13;;
2956;SDS011;1488;51.548;7.222;2022-08-30T10:22:27;1.33;;;1.20;;
2956;SDS011;1488;51.548;7.222;2022-08-30T10:25:00;1.03;;;0.90;;
2956;SDS011;1488;51.548;7.222;2022-08-30T10:27:40;1.83;;;1.20;;
2956;SDS011;1488;51.548;7.222;2022-08-30T10:30:12;1.50;;;1.20;;
2956;SDS011;1488;51.548;7.222;2022-08-30T10:32:44;1.10;;;0.90;;
2956;SDS011;1488;51.548;7.222;2022-08-30T10:35:17;1.03;;;0.93;;
2956;SDS011;1488;51.548;7.222;2022-08-30T10:37:49;1.00;;;0.90;;
2956;SDS011;1488;51.548;7.222;2022-08-30T10:40:20;1.00;;;0.90;;
2956;SDS011;1488;51.548;7.222;2022-08-30T10:43:13;1.40;;;1.10;;
2956;SDS011;1488;51.548;7.222;2022-08-30T10:45:47;1.20;;;1.10;;
2956;SDS011;1488;51.548;7.222;2022-08-30T10:48:20;1.17;;;0.93;;
2956;SDS011;1488;51.548;7.222;2022-08-30T10:50:51;1.13;;;1.03;;
2956;SDS011;1488;51.548;7.222;2022-08-30T10:53:22;2.03;;;1.00;;
2956;SDS011;1488;51.548;7.222;2022-08-30T10:55:59;1.10;;;0.90;;
2956;SDS011;1488;51.548;7.222;2022-08-30T10:58:28;1.00;;;0.90;;
2956;SDS011;1488;51.548;7.222;2022-08-30T11:01:04;1.00;;;0.90;;
2956;SDS011;1488;51.548;7.222;2022-08-30T11:04:02;0.97;;;0.83;;
2956;SDS011;1488;51.548;7.222;2022-08-30T11:07:11;1.70;;;1.33;;
2956;SDS011;1488;51.548;7.222;2022-08-30T11:09:50;1.10;;;1.00;;
2956;SDS011;1488;51.548;7.222;2022-08-30T11:12:33;1.47;;;1.37;;
2956;SDS011;1488;51.548;7.222;2022-08-30T11:15:13;1.17;;;0.87;;
2956;SDS011;1488;51.548;7.222;2022-08-30T11:17:43;1.17;;;0.90;;
2956;SDS011;1488;51.548;7.222;2022-08-30T11:20:27;3.90;;;1.20;;
2956;SDS011;1488;51.548;7.222;2022-08-30T11:25:55;1.10;;;1.00;;
2956;SDS011;1488;51.548;7.222;2022-08-30T11:31:32;1.50;;;1.40;;
2956;SDS011;1488;51.548;7.222;2022-08-30T11:34:06;1.10;;;1.00;;
2956;SDS011;1488;51.548;7.222;2022-08-30T11:39:52;1.40;;;1.10;;
2956;SDS011;1488;51.548;7.222;2022-08-30T11:42:34;1.03;;;0.93;;
2956;SDS011;1488;51.548;7.222;2022-08-30T11:48:36;2.03;;;1.07;;
2956;SDS011;1488;51.548;7.222;2022-08-30T11:51:11;1.20;;;1.10;;
2956;SDS011;1488;51.548;7.222;2022-08-30T11:53:57;1.10;;;1.00;;
2956;SDS011;1488;51.548;7.222;2022-08-30T11:56:30;1.37;;;1.27;;
2956;SDS011;1488;51.548;7.222;2022-08-30T11:59:08;1.93;;;1.00;;
2956;SDS011;1488;51.548;7.222;2022-08-30T12:01:48;1.47;;;1.37;;
2956;SDS011;1488;51.548;7.222;2022-08-30T12:04:24;1.30;;;1.20;;
2956;SDS011;1488;51.548;7.222;2022-08-30T12:06:54;1.20;;;1.10;;
2956;SDS011;1488;51.548;7.222;2022-08-30T12:18:32;1.00;;;0.90;;
2956;SDS011;1488;51.548;7.222;2022-08-30T12:21:07;1.20;;;1.10;;
2956;SDS011;1488;51.548;7.222;2022-08-30T12:23:42;1.20;;;1.10;;
2956;SDS011;1488;51.548;7.222;2022-08-30T12:26:17;1.10;;;1.00;;
2956;SDS011;1488;51.548;7.222;2022-08-30T12:29:09;1.00;;;0.90;;
2956;SDS011;1488;51.548;7.222;2022-08-30T12:31:40;1.30;;;1.03;;
2956;SDS011;1488;51.548;7.222;2022-08-30T12:34:15;1.20;;;1.10;;
2956;SDS011;1488;51.548;7.222;2022-08-30T12:36:48;1.13;;;1.03;;
2956;SDS011;1488;51.548;7.222;2022-08-30T12:39:20;1.20;;;1.10;;
2956;SDS011;1488;51.548;7.222;2022-08-30T12:41:50;2.60;;;1.47;;
2956;SDS011;1488;51.548;7.222;2022-08-30T12:44:21;1.50;;;1.10;;
2956;SDS011;1488;51.548;7.222;2022-08-30T12:46:51;1.40;;;1.00;;
2956;SDS011;1488;51.548;7.222;2022-08-30T12:49:21;1.30;;;0.97;;
2956;SDS011;1488;51.548;7.222;2022-08-30T12:51:50;1.50;;;1.40;;
2956;SDS011;1488;51.548;7.222;2022-08-30T12:54:20;1.20;;;1.10;;
2956;SDS011;1488;51.548;7.222;2022-08-30T12:56:57;1.37;;;1.27;;
2956;SDS011;1488;51.548;7.222;2022-08-30T12:59:43;1.20;;;1.10;;
2956;SDS011;1488;51.548;7.222;2022-08-30T13:02:13;1.07;;;0.97;;
2956;SDS011;1488;51.548;7.222;2022-08-30T13:04:42;1.10;;;1.00;;
2956;SDS011;1488;51.548;7.222;2022-08-30T13:07:22;2.00;;;1.10;;
2956;SDS011;1488;51.548;7.222;2022-08-30T13:10:02;1.10;;;0.90;;
2956;SDS011;1488;51.548;7.222;2022-08-30T13:12:32;1.23;;;1.13;;
2956;SDS011;1488;51.548;7.222;2022-08-30T13:15:14;1.40;;;1.20;;
2956;SDS011;1488;51.548;7.222;2022-08-30T13:17:44;1.20;;;1.00;;
2956;SDS011;1488;51.548;7.222;2022-08-30T13:20:24;1.20;;;1.10;;
2956;SDS011;1488;51.548;7.222;2022-08-30T13:23:03;1.23;;;1.13;;
2956;SDS011;1488;51.548;7.222;2022-08-30T13:25:32;0.90;;;0.80;;
2956;SDS011;1488;51.548;7.222;2022-08-30T13:27:59;1.57;;;1.40;;
2956;SDS011;1488;51.548;7.222;2022-08-30T13:30:30;1.37;;;1.27;;
2956;SDS011;1488;51.548;7.222;2022-08-30T13:32:57;1.17;;;1.07;;
2956;SDS011;1488;51.548;7.222;2022-08-30T13:35:26;1.50;;;1.20;;
2956;SDS011;1488;51.548;7.222;2022-08-30T13:37:54;1.50;;;1.40;;
2956;SDS011;1488;51.548;7.222;2022-08-30T13:40:21;1.33;;;1.10;;
2956;SDS011;1488;51.548;7.222;2022-08-30T13:42:48;1.37;;;1.17;;
2956;SDS011;1488;51.548;7.222;2022-08-30T13:45:16;1.23;;;1.13;;
2956;SDS011;1488;51.548;7.222;2022-08-30T13:47:46;1.13;;;1.03;;
2956;SDS011;1488;51.548;7.222;2022-08-30T13:50:14;1.30;;;1.20;;
2956;SDS011;1488;51.548;7.222;2022-08-30T13:52:43;1.20;;;1.10;;
2956;SDS011;1488;51.548;7.222;2022-08-30T13:55:10;1.23;;;1.13;;
2956;SDS011;1488;51.548;7.222;2022-08-30T13:57:39;1.23;;;1.13;;
2956;SDS011;1488;51.548;7.222;2022-08-30T14:00:07;1.20;;;1.10;;
2956;SDS011;1488;51.548;7.222;2022-08-30T14:02:37;1.20;;;1.10;;
2956;SDS011;1488;51.548;7.222;2022-08-30T14:05:07;1.20;;;1.10;;
2956;SDS011;1488;51.548;7.222;2022-08-30T14:07:34;1.97;;;1.60;;
2956;SDS011;1488;51.548;7.222;2022-08-30T14:10:02;1.20;;;1.10;;
2956;SDS011;1488;51.548;7.222;2022-08-30T14:12:29;1.10;;;1.00;;
2956;SDS011;1488;51.548;7.222;2022-08-30T14:14:56;1.10;;;1.00;;
2956;SDS011;1488;51.548;7.222;2022-08-30T14:17:25;0.87;;;0.87;;
2956;SDS011;1488;51.548;7.222;2022-08-30T14:19:56;1.77;;;0.90;;
2956;SDS011;1488;51.548;7.222;2022-08-30T14:22:25;1.20;;;1.10;;
2956;SDS011;1488;51.548;7.222;2022-08-30T14:24:52;1.10;;;1.00;;
2956;SDS011;1488;51.548;7.222;2022-08-30T14:27:19;1.20;;;1.10;;
2956;SDS011;1488;51.548;7.222;2022-08-30T14:29:47;1.17;;;1.07;;
2956;SDS011;1488;51.548;7.222;2022-08-30T14:32:14;1.20;;;1.10;;
2956;SDS011;1488;51.548;7.222;2022-08-30T14:34:41;1.33;;;1.03;;
2956;SDS011;1488;51.548;7.222;2022-08-30T14:37:08;1.00;;;0.90;;
2956;SDS011;1488;51.548;7.222;2022-08-30T14:39:36;1.10;;;1.00;;
2956;SDS011;1488;51.548;7.222;2022-08-30T14:42:04;1.20;;;1.10;;
2956;SDS011;1488;51.548;7.222;2022-08-30T14:44:31;1.10;;;1.00;;
2956;SDS011;1488;51.548;7.222;2022-08-30T14:46:58;1.20;;;1.10;;
2956;SDS011;1488;51.548;7.222;2022-08-30T14:49:25;1.20;;;1.10;;
2956;SDS011;1488;51.548;7.222;2022-08-30T14:51:52;1.10;;;1.00;;
2956;SDS011;1488;51.548;7.222;2022-08-30T14:54:20;1.23;;;1.13;;
2956;SDS011;1488;51.548;7.222;2022-08-30T14:56:50;1.60;;;1.50;;
2956;SDS011;1488;51.548;7.222;2022-08-30T14:59:17;1.13;;;1.03;;
2956;SDS011;1488;51.548;7.222;2022-08-30T15:01:44;1.20;;;1.10;;
2956;SDS011;1488;51.548;7.222;2022-08-30T15:04:11;1.83;;;1.20;;
2956;SDS011;1488;51.548;7.222;2022-08-30T15:06:40;1.13;;;1.00;;
2956;SDS011;1488;51.548;7.222;2022-08-30T15:09:09;1.13;;;1.03;;
2956;SDS011;1488;51.548;7.222;2022-08-30T15:11:37;1.63;;;1.20;;
2956;SDS011;1488;51.548;7.222;2022-08-30T15:14:07;1.37;;;1.27;;
2956;SDS011;1488;51.548;7.222;2022-08-30T15:16:35;1.00;;;0.90;;
2956;SDS011;1488;51.548;7.222;2022-08-30T15:19:04;1.10;;;1.00;;
2956;SDS011;1488;51.548;7.222;2022-08-30T15:21:33;0.90;;;0.90;;
2956;SDS011;1488;51.548;7.222;2022-08-30T15:24:03;1.27;;;1.17;;
2956;SDS011;1488;51.548;7.222;2022-08-30T15:26:31;1.20;;;1.10;;
2956;SDS011;1488;51.548;7.222;2022-08-30T15:28:58;1.13;;;1.03;;
2956;SDS011;1488;51.548;7.222;2022-08-30T15:31:26;1.10;;;1.00;;
2956;SDS011;1488;51.548;7.222;2022-08-30T15:33:55;1.20;;;1.10;;
2956;SDS011;1488;51.548;7.222;2022-08-30T15:36:22;1.60;;;1.50;;
2956;SDS011;1488;51.548;7.222;2022-08-30T15:38:50;2.03;;;1.93;;
2956;SDS011;1488;51.548;7.222;2022-08-30T15:41:19;1.90;;;1.70;;
2956;SDS011;1488;51.548;7.222;2022-08-30T15:43:46;2.50;;;2.00;;
2956;SDS011;1488;51.548;7.222;2022-08-30T15:46:15;4.23;;;2.70;;
2956;SDS011;1488;51.548;7.222;2022-08-30T15:48:45;5.17;;;3.13;;
2956;SDS011;1488;51.548;7.222;2022-08-30T15:51:12;3.73;;;3.20;;
2956;SDS011;1488;51.548;7.222;2022-08-30T15:53:40;5.13;;;3.20;;